createdAt,value
2018-03-22T00:01:19.289Z,100.00
2018-03-22T00:03:49.515Z,100.00
2018-03-22T00:06:19.389Z,100.00
2018-03-22T00:08:49.340Z,100.00
2018-03-22T00:11:19.376Z,100.00
2018-03-22T00:13:49.272Z,100.00
2018-03-22T00:16:19.313Z,100.00
2018-03-22T00:18:49.564Z,100.00
2018-03-22T00:21:19.606Z,100.00
2018-03-22T00:23:49.567Z,100.00
2018-03-22T00:26:19.647Z,100.00
2018-03-22T00:28:49.375Z,100.00
2018-03-22T00:31:20.014Z,100.00
2018-03-22T00:33:49.930Z,100.00
2018-03-22T00:36:19.801Z,100.00
2018-03-22T00:38:49.652Z,100.00
2018-03-22T00:41:19.544Z,100.00
2018-03-22T00:43:49.454Z,100.00
2018-03-22T00:46:19.294Z,100.00
2018-03-22T00:48:49.262Z,100.00
2018-03-22T00:51:19.115Z,100.00
2018-03-22T00:53:49.179Z,100.00
2018-03-22T00:56:19.198Z,100.00
2018-03-22T00:58:55.434Z,100.00
2018-03-22T01:01:25.561Z,100.00
2018-03-22T01:03:55.684Z,100.00
2018-03-22T01:06:26.415Z,100.00
2018-03-22T01:08:56.329Z,100.00
2018-03-22T01:11:26.288Z,100.00
2018-03-22T01:13:56.445Z,100.00
2018-03-22T01:16:26.394Z,100.00
2018-03-22T01:18:56.353Z,100.00
2018-03-22T01:21:26.346Z,100.00
2018-03-22T01:23:56.199Z,100.00
2018-03-22T01:26:26.114Z,100.00
2018-03-22T01:28:56.087Z,100.00
2018-03-22T01:31:25.937Z,100.00
2018-03-22T01:33:55.776Z,100.00
2018-03-22T01:36:25.626Z,100.00
2018-03-22T01:38:55.546Z,100.00
2018-03-22T01:41:25.459Z,100.00
2018-03-22T01:43:55.464Z,100.00
2018-03-22T01:46:25.342Z,100.00
2018-03-22T01:48:55.248Z,100.00
2018-03-22T01:51:25.166Z,100.00
2018-03-22T01:53:55.946Z,100.00
2018-03-22T01:56:25.829Z,100.00
2018-03-22T01:58:55.673Z,100.00
2018-03-22T02:01:25.530Z,100.00
2018-03-22T02:03:56.604Z,100.00
2018-03-22T02:06:26.485Z,100.00
2018-03-22T02:08:56.405Z,100.00
2018-03-22T02:11:26.302Z,100.00
2018-03-22T02:13:56.152Z,100.00
2018-03-22T02:16:26.051Z,100.00
2018-03-22T02:18:55.961Z,100.00
2018-03-22T02:21:25.875Z,100.00
2018-03-22T02:23:55.749Z,100.00
2018-03-22T02:26:25.661Z,100.00
2018-03-22T02:28:55.603Z,100.00
2018-03-22T02:31:25.454Z,100.00
2018-03-22T02:33:55.370Z,100.00
2018-03-22T02:36:25.084Z,100.00
2018-03-22T02:38:54.982Z,100.00
2018-03-22T02:41:24.894Z,100.00
2018-03-22T02:43:54.790Z,100.00
2018-03-22T02:46:24.635Z,100.00
2018-03-22T02:48:54.561Z,100.00
2018-03-22T02:51:24.454Z,100.00
2018-03-22T02:53:54.291Z,100.00
2018-03-22T02:56:24.161Z,100.00
2018-03-22T02:58:54.196Z,100.00
2018-03-22T03:01:24.118Z,100.00
2018-03-22T03:03:53.994Z,100.00
2018-03-22T03:06:23.889Z,100.00
2018-03-22T03:08:53.791Z,100.00
2018-03-22T03:11:23.691Z,100.00
2018-03-22T03:13:53.553Z,100.00
2018-03-22T03:16:23.448Z,100.00
2018-03-22T03:18:53.456Z,100.00
2018-03-22T03:21:23.411Z,100.00
2018-03-22T03:23:53.513Z,100.00
2018-03-22T03:26:23.484Z,100.00
2018-03-22T03:28:53.362Z,100.00
2018-03-22T03:31:23.300Z,100.00
2018-03-22T03:33:53.192Z,100.00
2018-03-22T03:36:23.095Z,100.00
2018-03-22T03:38:52.957Z,100.00
2018-03-22T03:41:22.866Z,100.00
2018-03-22T03:43:52.763Z,100.00
2018-03-22T03:46:22.417Z,100.00
2018-03-22T03:48:52.325Z,100.00
2018-03-22T03:51:22.182Z,100.00
2018-03-22T03:53:52.045Z,100.00
2018-03-22T03:56:21.929Z,100.00
2018-03-22T03:58:51.746Z,100.00
2018-03-22T04:01:21.628Z,100.00
2018-03-22T04:03:51.454Z,100.00
2018-03-22T04:06:21.309Z,100.00
2018-03-22T04:08:51.153Z,100.00
2018-03-22T04:11:21.027Z,100.00
2018-03-22T04:13:50.873Z,100.00
2018-03-22T04:16:20.796Z,100.00
2018-03-22T04:18:50.718Z,100.00
2018-03-22T04:21:20.556Z,100.00
2018-03-22T04:23:50.467Z,100.00
2018-03-22T04:26:20.367Z,100.00
2018-03-22T04:28:50.211Z,100.00
2018-03-22T04:31:20.052Z,100.00
2018-03-22T04:33:49.683Z,100.00
2018-03-22T04:36:19.549Z,100.00
2018-03-22T04:38:49.419Z,100.00
2018-03-22T04:41:19.285Z,100.00
2018-03-22T04:43:49.138Z,100.00
2018-03-22T04:46:18.981Z,100.00
2018-03-22T04:48:48.835Z,100.00
2018-03-22T04:51:18.683Z,100.00
2018-03-22T04:53:48.535Z,100.00
2018-03-22T04:56:18.426Z,100.00
2018-03-22T04:58:48.278Z,100.00
2018-03-22T05:01:18.138Z,100.00
2018-03-22T05:03:48.038Z,100.00
2018-03-22T05:06:17.866Z,100.00
2018-03-22T05:08:47.723Z,100.00
2018-03-22T05:11:17.666Z,100.00
2018-03-22T05:13:47.516Z,100.00
2018-03-22T05:16:17.362Z,100.00
2018-03-22T05:18:47.225Z,100.00
2018-03-22T05:21:17.173Z,100.00
2018-03-22T05:23:47.089Z,100.00
2018-03-22T05:26:16.992Z,100.00
2018-03-22T05:28:46.893Z,100.00
2018-03-22T05:31:16.775Z,100.00
2018-03-22T05:33:46.673Z,100.00
2018-03-22T05:36:16.490Z,100.00
2018-03-22T05:38:46.653Z,100.00
2018-03-22T05:41:16.613Z,100.00
2018-03-22T05:43:46.474Z,100.00
2018-03-22T05:46:16.143Z,100.00
2018-03-22T05:48:46.024Z,100.00
2018-03-22T05:51:15.864Z,100.00
2018-03-22T05:53:46.533Z,100.00
2018-03-22T05:56:19.644Z,100.00
2018-03-22T05:58:51.777Z,100.00
2018-03-22T06:01:22.829Z,100.00
2018-03-22T06:03:58.769Z,100.00
2018-03-22T06:06:29.906Z,100.00
2018-03-22T06:09:00.439Z,100.00
2018-03-22T06:11:31.377Z,100.00
2018-03-22T06:14:01.688Z,100.00
2018-03-22T06:16:31.736Z,99.87
2018-03-22T06:19:05.218Z,94.91
2018-03-22T06:24:10.778Z,84.37
2018-03-22T06:26:40.806Z,85.18
2018-03-22T06:29:11.370Z,80.88
2018-03-22T06:31:41.590Z,78.72
2018-03-22T06:34:12.654Z,76.56
2018-03-22T06:36:52.560Z,72.25
2018-03-22T06:39:23.498Z,68.15
2018-03-22T06:41:54.735Z,64.47
2018-03-22T06:44:25.571Z,61.62
2018-03-22T06:46:56.215Z,58.76
2018-03-22T06:49:29.109Z,59.06
2018-03-22T06:51:59.112Z,54.22
2018-03-22T06:54:29.046Z,51.38
2018-03-22T06:56:59.016Z,51.45
2018-03-22T06:59:29.061Z,48.03
2018-03-22T07:01:58.988Z,48.34
2018-03-22T07:04:29.709Z,48.31
2018-03-22T07:07:04.218Z,47.57
2018-03-22T07:09:34.674Z,44.04
2018-03-22T07:12:05.349Z,43.97
2018-03-22T07:14:35.335Z,46.06
2018-03-22T07:17:05.460Z,43.06
2018-03-22T07:19:35.588Z,40.14
2018-03-22T07:22:05.706Z,40.01
2018-03-22T07:24:35.442Z,39.41
2018-03-22T07:27:04.957Z,38.50
2018-03-22T07:29:34.826Z,38.41
2018-03-22T07:32:04.780Z,39.17
2018-03-22T07:34:34.699Z,40.51
2018-03-22T07:37:04.529Z,44.72
2018-03-22T07:39:34.314Z,38.90
2018-03-22T07:42:04.038Z,38.77
2018-03-22T07:44:39.995Z,37.45
2018-03-22T07:47:09.825Z,37.53
2018-03-22T07:49:39.678Z,37.55
2018-03-22T07:52:09.606Z,36.57
2018-03-22T07:54:39.473Z,34.23
2018-03-22T07:57:09.331Z,34.42
2018-03-22T07:59:39.031Z,34.76
2018-03-22T08:02:08.951Z,36.35
2018-03-22T08:04:38.815Z,37.41
2018-03-22T08:07:08.655Z,37.14
2018-03-22T08:09:38.507Z,40.84
2018-03-22T08:12:08.198Z,37.75
2018-03-22T08:14:37.822Z,38.52
2018-03-22T08:17:07.960Z,39.52
2018-03-22T08:19:37.769Z,38.38
2018-03-22T08:22:07.969Z,38.28
2018-03-22T08:24:37.821Z,37.98
2018-03-22T08:27:07.833Z,36.85
2018-03-22T08:29:37.877Z,36.18
2018-03-22T08:32:07.971Z,37.11
2018-03-22T08:34:37.865Z,37.57
2018-03-22T08:37:07.745Z,35.71
2018-03-22T08:39:37.589Z,34.18
2018-03-22T08:42:07.419Z,31.21
2018-03-22T08:44:37.267Z,29.42
2018-03-22T08:47:07.147Z,30.39
2018-03-22T08:49:37.029Z,28.71
2018-03-22T08:52:06.950Z,29.11
2018-03-22T08:54:36.975Z,28.07
2018-03-22T08:57:06.813Z,26.96
2018-03-22T08:59:36.766Z,26.21
2018-03-22T09:02:06.677Z,25.40
2018-03-22T09:04:36.526Z,26.31
2018-03-22T09:07:06.661Z,26.20
2018-03-22T09:09:36.601Z,28.34
2018-03-22T09:12:06.491Z,28.75
2018-03-22T09:14:36.890Z,28.19
2018-03-22T09:17:06.983Z,26.79
2018-03-22T09:19:36.986Z,27.21
2018-03-22T09:22:06.854Z,26.55
2018-03-22T09:24:36.803Z,26.12
2018-03-22T09:27:06.499Z,25.18
2018-03-22T09:29:36.404Z,24.53
2018-03-22T09:32:06.333Z,25.14
2018-03-22T09:34:36.201Z,24.19
2018-03-22T09:37:07.305Z,23.37
2018-03-22T09:39:37.094Z,21.83
2018-03-22T09:47:32.266Z,17.54
2018-03-22T09:50:02.939Z,17.99
2018-03-22T09:55:08.718Z,16.58
2018-03-22T09:57:38.618Z,17.68
2018-03-22T10:00:10.807Z,17.23
2018-03-22T10:02:40.463Z,17.48
2018-03-22T10:05:10.094Z,19.00
2018-03-22T10:07:41.197Z,20.83
2018-03-22T10:10:10.941Z,20.57
2018-03-22T10:12:41.121Z,19.43
2018-03-22T10:15:12.434Z,22.71
2018-03-22T10:17:45.172Z,20.33
2018-03-22T10:20:14.809Z,19.99
2018-03-22T10:22:44.511Z,18.74
2018-03-22T10:25:14.207Z,17.51
2018-03-22T10:27:43.856Z,15.74
2018-03-22T10:30:13.524Z,14.88
2018-03-22T10:32:43.968Z,15.49
2018-03-22T10:35:14.172Z,14.35
2018-03-22T10:37:46.545Z,15.34
2018-03-22T10:40:16.835Z,15.59
2018-03-22T10:42:46.460Z,22.32
2018-03-22T10:45:16.138Z,18.58
2018-03-22T10:47:46.667Z,20.35
2018-03-22T10:55:57.667Z,17.05
2018-03-22T10:58:38.450Z,17.50
2018-03-22T11:01:14.178Z,14.72
2018-03-22T11:03:52.671Z,13.72
2018-03-22T11:06:22.292Z,13.57
2018-03-22T11:08:52.594Z,13.46
2018-03-22T11:11:22.882Z,13.59
2018-03-22T11:16:53.295Z,15.81
2018-03-22T11:19:23.128Z,14.29
2018-03-22T11:24:27.167Z,14.60
2018-03-22T11:26:59.331Z,14.18
2018-03-22T11:29:28.920Z,13.96
2018-03-22T11:31:59.815Z,14.79
2018-03-22T11:34:29.866Z,14.48
2018-03-22T11:36:59.487Z,12.46
2018-03-22T11:39:28.782Z,13.84
2018-03-22T11:41:58.417Z,11.92
2018-03-22T11:44:28.048Z,12.42
2018-03-22T11:46:57.857Z,12.37
2018-03-22T11:49:58.582Z,13.42
2018-03-22T11:52:30.303Z,11.20
2018-03-22T11:55:00.609Z,10.92
2018-03-22T11:57:30.341Z,10.26
2018-03-22T12:00:01.854Z,10.44
2018-03-22T12:02:59.191Z,9.83
2018-03-22T12:08:10.376Z,13.06
2018-03-22T12:10:40.421Z,14.26
2018-03-22T12:13:10.131Z,10.90
2018-03-22T12:15:41.414Z,11.88
2018-03-22T12:18:12.000Z,12.89
2018-03-22T12:20:42.001Z,12.24
2018-03-22T12:25:47.506Z,10.85
2018-03-22T12:37:12.561Z,9.86
2018-03-22T12:43:27.709Z,11.62
2018-03-22T12:46:03.323Z,11.72
2018-03-22T12:51:16.472Z,9.90
2018-03-22T12:53:47.012Z,9.86
2018-03-22T12:56:19.996Z,10.05
2018-03-22T12:58:49.847Z,10.66
2018-03-22T13:01:23.389Z,9.78
2018-03-22T13:03:53.180Z,13.10
2018-03-22T13:06:23.791Z,12.52
2018-03-22T13:08:53.490Z,13.96
2018-03-22T13:19:25.360Z,10.98
2018-03-22T13:21:57.540Z,10.96
2018-03-22T13:24:27.226Z,11.84
2018-03-22T13:26:57.018Z,13.67
2018-03-22T13:29:26.664Z,12.15
2018-03-22T13:31:57.956Z,11.42
2018-03-22T13:34:29.416Z,12.46
2018-03-22T13:36:58.840Z,11.64
2018-03-22T13:42:15.963Z,13.48
2018-03-22T13:44:57.066Z,14.93
2018-03-22T13:47:27.399Z,18.94
2018-03-22T13:50:03.532Z,18.79
2018-03-22T13:55:30.955Z,20.36
2018-03-22T13:58:00.752Z,20.31
2018-03-22T14:00:30.391Z,18.42
2018-03-22T14:03:00.215Z,19.15
2018-03-22T14:05:30.944Z,17.55
2018-03-22T14:08:00.389Z,18.10
2018-03-22T14:10:30.090Z,21.36
2018-03-22T14:13:00.816Z,20.93
2018-03-22T14:15:32.862Z,21.71
2018-03-22T14:18:04.044Z,21.71
2018-03-22T14:20:33.721Z,21.93
2018-03-22T14:23:03.359Z,19.99
2018-03-22T14:25:41.665Z,22.63
2018-03-22T14:28:11.315Z,20.29
2018-03-22T14:30:41.141Z,21.74
2018-03-22T14:33:10.641Z,22.56
2018-03-22T14:35:40.572Z,24.34
2018-03-22T14:38:10.890Z,23.15
2018-03-22T14:40:51.750Z,25.94
2018-03-22T14:48:56.910Z,28.25
2018-03-22T14:51:28.608Z,29.18
2018-03-22T14:56:32.422Z,27.55
2018-03-22T14:59:03.401Z,28.35
2018-03-22T15:04:21.981Z,28.95
2018-03-22T15:06:52.261Z,29.04
2018-03-22T15:09:23.137Z,29.51
2018-03-22T15:14:43.926Z,30.55
2018-03-22T15:22:25.195Z,32.16
2018-03-22T15:27:44.404Z,33.28
2018-03-22T15:30:14.375Z,32.92
2018-03-22T15:35:20.120Z,30.81
2018-03-22T15:37:50.184Z,30.50
2018-03-22T15:40:20.562Z,31.42
2018-03-22T15:42:50.125Z,32.45
2018-03-22T15:45:22.997Z,33.01
2018-03-22T15:47:55.505Z,32.91
2018-03-22T15:53:20.719Z,32.93
2018-03-22T15:55:52.028Z,33.01
2018-03-22T15:58:21.945Z,33.67
2018-03-22T16:00:55.306Z,34.51
2018-03-22T16:03:25.357Z,33.68
2018-03-22T16:05:55.843Z,35.62
2018-03-22T16:08:29.853Z,35.44
2018-03-22T16:13:38.554Z,35.76
2018-03-22T16:16:08.694Z,35.90
2018-03-22T16:18:38.620Z,36.26
2018-03-22T16:21:08.511Z,37.05
2018-03-22T16:23:38.233Z,36.96
2018-03-22T16:26:08.144Z,36.36
2018-03-22T16:28:39.929Z,37.03
2018-03-22T16:31:21.223Z,36.17
2018-03-22T16:33:52.644Z,37.80
2018-03-22T16:36:22.440Z,36.60
2018-03-22T16:38:52.960Z,38.48
2018-03-22T16:41:28.608Z,37.12
2018-03-22T16:44:04.748Z,37.22
2018-03-22T16:46:38.213Z,36.63
2018-03-22T16:49:10.716Z,36.78
2018-03-22T16:51:42.347Z,37.08
2018-03-22T16:54:13.849Z,37.76
2018-03-22T16:56:50.461Z,38.75
2018-03-22T16:59:23.161Z,38.26
2018-03-22T17:01:53.593Z,38.45
2018-03-22T17:04:23.970Z,38.22
2018-03-22T17:06:58.260Z,39.25
2018-03-22T17:09:45.241Z,40.15
2018-03-22T17:12:20.787Z,39.53
2018-03-22T17:14:50.674Z,39.61
2018-03-22T17:17:20.792Z,40.05
2018-03-22T17:19:50.693Z,40.41
2018-03-22T17:22:20.507Z,40.48
2018-03-22T17:24:50.523Z,41.02
2018-03-22T17:27:20.920Z,39.85
2018-03-22T17:30:02.030Z,41.14
2018-03-22T17:33:01.571Z,40.54
2018-03-22T17:35:31.406Z,41.80
2018-03-22T17:38:01.231Z,41.48
2018-03-22T17:40:32.458Z,41.98
2018-03-22T17:43:08.255Z,41.96
2018-03-22T17:45:56.261Z,42.47
2018-03-22T17:48:29.547Z,42.88
2018-03-22T17:51:10.297Z,41.98
2018-03-22T17:54:03.727Z,40.53
2018-03-22T17:56:46.049Z,40.51
2018-03-22T17:59:18.647Z,41.13
2018-03-22T18:01:48.879Z,40.86
2018-03-22T18:04:23.178Z,42.27
2018-03-22T18:06:53.213Z,42.18
2018-03-22T18:09:35.866Z,41.73
2018-03-22T18:12:07.408Z,41.58
2018-03-22T18:14:38.519Z,40.99
2018-03-22T18:17:10.507Z,42.35
2018-03-22T18:19:42.414Z,41.09
2018-03-22T18:22:18.055Z,41.66
2018-03-22T18:24:50.605Z,42.38
2018-03-22T18:27:20.660Z,42.76
2018-03-22T18:29:51.394Z,43.66
2018-03-22T18:32:21.681Z,44.43
2018-03-22T18:34:51.493Z,42.12
2018-03-22T18:37:26.516Z,41.76
2018-03-22T18:39:56.673Z,42.23
2018-03-22T18:42:26.457Z,42.70
2018-03-22T18:44:56.478Z,43.10
2018-03-22T18:47:26.364Z,43.01
2018-03-22T18:49:56.403Z,43.57
2018-03-22T18:52:26.202Z,42.42
2018-03-22T18:54:56.011Z,43.29
2018-03-22T18:57:29.643Z,44.98
2018-03-22T18:59:59.466Z,44.52
2018-03-22T19:02:29.232Z,42.95
2018-03-22T19:04:59.045Z,43.30
2018-03-22T19:07:28.854Z,44.47
2018-03-22T19:09:59.695Z,43.77
2018-03-22T19:12:30.514Z,43.49
2018-03-22T19:15:00.433Z,44.15
2018-03-22T19:17:30.292Z,44.44
2018-03-22T19:20:00.626Z,44.81
2018-03-22T19:22:30.535Z,45.15
2018-03-22T19:25:14.543Z,45.48
2018-03-22T19:27:44.383Z,46.17
2018-03-22T19:30:14.240Z,47.41
2018-03-22T19:33:20.333Z,48.11
2018-03-22T19:36:11.058Z,49.08
2018-03-22T19:38:42.519Z,49.89
2018-03-22T19:41:12.320Z,50.10
2018-03-22T19:43:42.141Z,50.91
2018-03-22T19:46:12.475Z,51.20
2018-03-22T19:48:42.274Z,51.82
2018-03-22T19:51:12.063Z,52.15
2018-03-22T19:53:42.005Z,52.42
2018-03-22T19:56:11.793Z,52.90
2018-03-22T19:58:41.667Z,53.39
2018-03-22T20:01:12.462Z,53.51
2018-03-22T20:03:42.271Z,53.86
2018-03-22T20:06:23.145Z,54.55
2018-03-22T20:08:55.325Z,54.49
2018-03-22T20:11:35.824Z,55.19
2018-03-22T20:14:09.711Z,55.41
2018-03-22T20:16:46.456Z,55.38
2018-03-22T20:19:27.253Z,55.72
2018-03-22T20:22:05.356Z,55.99
2018-03-22T20:24:35.228Z,56.34
2018-03-22T20:27:06.306Z,56.73
2018-03-22T20:29:36.351Z,56.94
2018-03-22T20:32:06.194Z,57.09
2018-03-22T20:34:36.312Z,57.25
2018-03-22T20:37:06.197Z,57.06
2018-03-22T20:39:40.845Z,57.15
2018-03-22T20:42:10.823Z,57.25
2018-03-22T20:44:55.669Z,58.09
2018-03-22T20:47:27.243Z,58.32
2018-03-22T20:49:57.719Z,58.21
2018-03-22T20:52:29.258Z,58.75
2018-03-22T20:54:59.279Z,59.19
2018-03-22T20:57:30.210Z,59.86
2018-03-22T21:00:00.116Z,60.52
2018-03-22T21:02:29.752Z,62.05
2018-03-22T21:04:59.686Z,62.97
2018-03-22T21:07:29.730Z,63.84
2018-03-22T21:09:59.628Z,64.31
2018-03-22T21:12:29.426Z,64.54
2018-03-22T21:14:59.237Z,64.81
2018-03-22T21:17:29.074Z,65.40
2018-03-22T21:19:59.138Z,65.46
2018-03-22T21:22:29.106Z,65.59
2018-03-22T21:24:58.991Z,66.87
2018-03-22T21:27:28.820Z,67.34
2018-03-22T21:29:59.274Z,68.57
2018-03-22T21:32:29.290Z,69.05
2018-03-22T21:34:59.136Z,69.67
2018-03-22T21:37:28.961Z,70.28
2018-03-22T21:40:00.109Z,70.99
2018-03-22T21:42:30.050Z,70.75
2018-03-22T21:45:01.308Z,72.31
2018-03-22T21:47:33.643Z,72.72
2018-03-22T21:50:03.941Z,73.19
2018-03-22T21:52:43.763Z,74.53
2018-03-22T21:55:13.324Z,76.05
2018-03-22T21:57:43.298Z,77.85
2018-03-22T22:00:12.842Z,78.81
2018-03-22T22:02:42.769Z,79.54
2018-03-22T22:05:12.692Z,81.40
2018-03-22T22:07:42.574Z,82.12
2018-03-22T22:10:12.416Z,82.99
2018-03-22T22:12:42.337Z,83.95
2018-03-22T22:15:12.213Z,84.88
2018-03-22T22:17:42.023Z,85.40
2018-03-22T22:20:11.911Z,85.44
2018-03-22T22:22:41.955Z,86.11
2018-03-22T22:25:12.800Z,86.85
2018-03-22T22:27:42.741Z,87.36
2018-03-22T22:30:12.167Z,87.22
2018-03-22T22:32:43.013Z,88.33
2018-03-22T22:35:13.155Z,88.77
2018-03-22T22:37:43.221Z,89.25
2018-03-22T22:40:13.216Z,89.39
2018-03-22T22:42:43.049Z,89.44
2018-03-22T22:45:12.862Z,89.85
2018-03-22T22:47:42.957Z,89.59
2018-03-22T22:50:12.806Z,90.48
2018-03-22T22:52:42.649Z,90.71
2018-03-22T22:55:12.831Z,91.15
2018-03-22T22:57:42.512Z,91.16
2018-03-22T23:00:12.620Z,91.23
2018-03-22T23:02:44.034Z,91.89
2018-03-22T23:05:13.868Z,92.17
2018-03-22T23:07:43.688Z,92.70
2018-03-22T23:10:13.522Z,92.66
2018-03-22T23:12:43.357Z,92.55
2018-03-22T23:15:13.198Z,92.88
2018-03-22T23:17:43.760Z,92.92
2018-03-22T23:20:13.776Z,92.73
2018-03-22T23:22:43.567Z,92.62
2018-03-22T23:25:13.403Z,93.17
2018-03-22T23:27:43.226Z,93.22
2018-03-22T23:30:13.053Z,93.85
2018-03-22T23:32:42.901Z,93.33
2018-03-22T23:35:12.539Z,93.80
2018-03-22T23:37:42.390Z,94.13
2018-03-22T23:40:12.214Z,94.19
2018-03-22T23:42:42.076Z,93.97
2018-03-22T23:45:11.891Z,93.68
2018-03-22T23:47:41.704Z,93.43
2018-03-22T23:50:11.196Z,93.65
2018-03-22T23:52:41.335Z,93.73
2018-03-22T23:55:15.304Z,93.69
2018-03-22T23:57:45.143Z,93.84
